Time;durP1;ratioP1;P1;durP2;ratioP2;P2;SDS_P1;SDS_P2;PMS_P1;PMS_P2;Temp;Humidity;BMP_temperature;BMP_pressure;BME280_temperature;BME280_humidity;BME280_pressure;Samples;Min_cycle;Max_cycle;Signal;HPM_P1;HPM_P2
2023/10/24 00:02:43;;;;;;;8.10;4.30;;;20.60;82.10;;;;;;10506571;28;20885;-37
2023/10/24 00:07:46;;;;;;;8.80;4.30;;;20.60;81.90;;;;;;10495000;28;20127;-32
2023/10/24 00:12:49;;;;;;;6.15;3.72;;;20.60;81.90;;;;;;10505939;28;20059;-39
2023/10/24 00:17:51;;;;;;;6.22;3.70;;;20.60;81.90;;;;;;10505129;28;20098;-36
2023/10/24 00:22:53;;;;;;;6.88;3.80;;;20.50;81.90;;;;;;10502651;28;20093;-31
2023/10/24 00:27:56;;;;;;;6.18;4.10;;;20.50;81.70;;;;;;10496437;28;20083;-32
2023/10/24 00:32:58;;;;;;;6.47;3.33;;;20.60;81.80;;;;;;10506922;28;20449;-34
2023/10/24 00:38:00;;;;;;;7.20;4.07;;;20.50;82.20;;;;;;10505640;28;20131;-34
2023/10/24 00:43:04;;;;;;;7.50;4.22;;;20.50;81.70;;;;;;10487435;28;20179;-33
2023/10/24 00:48:07;;;;;;;10.35;4.40;;;20.60;82.20;;;;;;10503166;28;20568;-36
2023/10/24 00:53:09;;;;;;;9.57;4.85;;;20.50;81.60;;;;;;10503259;28;20072;-40
2023/10/24 00:58:13;;;;;;;9.57;4.65;;;20.50;81.40;;;;;;10502392;28;20063;-42
2023/10/24 01:03:16;;;;;;;8.23;4.15;;;20.50;81.60;;;;;;10489162;28;20110;-36
2023/10/24 01:08:18;;;;;;;7.95;4.18;;;20.30;82.00;;;;;;10503979;28;20122;-32
2023/10/24 01:13:21;;;;;;;7.65;4.25;;;20.40;82.00;;;;;;10496936;28;20089;-31
2023/10/24 01:18:23;;;;;;;5.60;3.85;;;20.40;82.00;;;;;;10487009;28;20134;-31
2023/10/24 01:23:28;;;;;;;7.03;3.88;;;20.20;82.70;;;;;;10490461;28;20086;-34
2023/10/24 01:28:30;;;;;;;6.30;4.22;;;20.00;83.40;;;;;;10498489;28;20139;-38
2023/10/24 01:33:32;;;;;;;6.68;4.57;;;20.10;83.10;;;;;;10503726;28;20443;-33
2023/10/24 01:38:35;;;;;;;12.02;4.25;;;18.30;91.70;;;;;;10483033;28;20435;-31
2023/10/24 01:43:37;;;;;;;8.00;4.82;;;18.60;92.30;;;;;;10496057;28;20135;-45
2023/10/24 01:48:40;;;;;;;6.35;3.63;;;18.40;92.60;;;;;;10499604;28;20480;-30
2023/10/24 01:53:43;;;;;;;6.22;4.88;;;18.90;91.10;;;;;;10495583;28;20052;-31
2023/10/24 01:58:45;;;;;;;6.70;3.70;;;18.30;92.50;;;;;;10505193;28;20492;-41
2023/10/24 02:03:46;;;;;;;6.20;3.57;;;18.90;91.40;;;;;;10495181;28;20060;-32
2023/10/24 02:08:50;;;;;;;6.20;3.43;;;18.60;92.90;;;;;;10488793;28;20482;-32
2023/10/24 02:13:51;;;;;;;5.50;3.78;;;19.00;91.30;;;;;;10496913;28;20557;-31
2023/10/24 02:18:53;;;;;;;8.00;6.13;;;18.10;94.30;;;;;;10502318;28;20134;-43
2023/10/24 02:23:56;;;;;;;5.33;3.33;;;18.70;91.70;;;;;;10495555;28;20079;-31
2023/10/24 02:28:58;;;;;;;5.10;3.67;;;19.20;90.70;;;;;;10500556;28;20131;-31
2023/10/24 02:34:00;;;;;;;4.13;3.03;;;19.30;90.40;;;;;;10501868;28;20548;-32
2023/10/24 02:39:03;;;;;;;5.25;3.28;;;19.40;89.20;;;;;;10481433;28;20052;-38
2023/10/24 02:44:05;;;;;;;9.00;6.05;;;18.10;94.10;;;;;;10504273;28;20169;-31
2023/10/24 02:49:06;;;;;;;7.45;4.43;;;16.70;99.70;;;;;;10501385;28;20064;-32
2023/10/24 02:54:10;;;;;;;5.00;3.77;;;18.00;95.10;;;;;;10501662;28;20043;-39
2023/10/24 03:15:44;;;;;;;7.43;5.25;;;17.60;96.20;;;;;;10552004;27;23750;-38
2023/10/24 03:20:46;;;;;;;9.77;8.07;;;17.80;95.80;;;;;;10508525;28;20171;-35
2023/10/24 03:25:48;;;;;;;7.70;3.80;;;18.00;94.40;;;;;;10509866;28;20090;-33
2023/10/24 03:31:03;;;;;;;7.50;6.00;;;18.20;95.00;;;;;;10506380;28;20502;-32
2023/10/24 03:36:05;;;;;;;7.82;6.03;;;18.30;94.00;;;;;;10505220;28;20399;-32
2023/10/24 03:41:07;;;;;;;5.85;3.80;;;18.30;93.40;;;;;;10507742;28;20708;-35
2023/10/24 03:46:10;;;;;;;;;;;18.60;93.20;;;;;;10507326;28;20051;-37
2023/10/24 03:51:12;;;;;;;13.23;8.43;;;18.30;93.20;;;;;;10503417;28;19916;-37
2023/10/24 03:56:14;;;;;;;9.63;5.68;;;18.00;94.50;;;;;;10505671;28;20071;-32
2023/10/24 04:01:17;;;;;;;6.33;5.03;;;18.20;94.00;;;;;;10511698;28;20903;-33
2023/10/24 04:06:19;;;;;;;11.32;7.05;;;17.90;95.20;;;;;;10507177;28;20047;-40
2023/10/24 04:11:20;;;;;;;5.63;3.13;;;17.70;95.30;;;;;;10503422;28;20096;-36
2023/10/24 04:16:24;;;;;;;10.48;8.02;;;18.30;93.90;;;;;;10504200;28;20036;-34
2023/10/24 04:21:25;;;;;;;4.85;3.80;;;18.00;93.70;;;;;;10501361;28;20044;-33
2023/10/24 04:26:27;;;;;;;10.00;6.30;;;17.70;96.20;;;;;;10477837;28;20485;-36
2023/10/24 04:31:31;;;;;;;5.40;2.93;;;17.00;98.00;;;;;;10478601;28;20075;-33
2023/10/24 04:36:33;;;;;;;4.40;3.28;;;17.40;98.30;;;;;;10477342;28;20048;-36
2023/10/24 04:41:35;;;;;;;8.53;5.87;;;18.40;93.80;;;;;;10474837;28;20135;-31
2023/10/24 04:46:38;;;;;;;10.50;4.97;;;17.00;97.70;;;;;;10477785;28;20528;-37
2023/10/24 04:51:40;;;;;;;13.10;8.63;;;17.40;96.70;;;;;;10476781;28;20134;-42
2023/10/24 04:56:42;;;;;;;7.37;4.60;;;16.30;99.90;;;;;;10475126;28;20525;-33
2023/10/24 05:01:45;;;;;;;10.63;7.50;;;17.60;96.50;;;;;;10474792;28;20156;-31
2023/10/24 05:06:46;;;;;;;14.70;9.65;;;15.80;99.90;;;;;;10466390;28;20059;-39
2023/10/24 05:11:48;;;;;;;6.77;4.23;;;16.70;99.10;;;;;;10471777;28;20141;-31
2023/10/24 05:16:52;;;;;;;16.85;8.35;;;17.00;99.60;;;;;;10469224;28;20044;-32
2023/10/24 05:21:54;;;;;;;3.88;2.80;;;17.40;97.60;;;;;;10474841;28;20110;-38
2023/10/24 05:26:55;;;;;;;16.95;10.38;;;16.70;99.90;;;;;;10471492;28;20978;-32
2023/10/24 05:31:59;;;;;;;4.07;3.20;;;17.20;98.10;;;;;;10465852;28;20067;-32
2023/10/24 05:37:00;;;;;;;5.07;3.28;;;17.60;97.80;;;;;;10472151;28;20440;-32
2023/10/24 05:42:02;;;;;;;7.90;2.45;;;17.60;98.30;;;;;;10472203;28;20036;-32
2023/10/24 05:47:06;;;;;;;17.27;10.57;;;18.20;96.50;;;;;;10467894;28;23773;-31
2023/10/24 05:52:07;;;;;;;17.70;10.57;;;17.20;98.20;;;;;;10471815;28;20043;-31
2023/10/24 05:57:09;;;;;;;4.93;4.17;;;16.40;99.90;;;;;;10471268;28;20155;-32
2023/10/24 06:02:12;;;;;;;6.10;4.33;;;16.30;99.90;;;;;;10469901;28;20555;-42
2023/10/24 06:07:14;;;;;;;11.07;8.20;;;17.00;99.90;;;;;;10465321;28;20072;-39
2023/10/24 06:12:16;;;;;;;7.47;2.87;;;17.40;99.20;;;;;;10469586;28;20516;-45
2023/10/24 06:17:20;;;;;;;8.10;5.33;;;16.50;99.90;;;;;;10466612;28;20044;-35
2023/10/24 06:22:21;;;;;;;11.10;6.05;;;18.00;98.20;;;;;;10469092;28;20045;-36
2023/10/24 06:27:23;;;;;;;4.70;3.10;;;17.50;98.50;;;;;;10469527;28;20853;-40
2023/10/24 06:32:26;;;;;;;7.23;4.43;;;18.50;95.60;;;;;;10469429;28;20064;-38
2023/10/24 06:37:28;;;;;;;5.28;2.92;;;18.30;96.30;;;;;;10468362;28;20143;-33
2023/10/24 06:42:30;;;;;;;5.13;3.63;;;19.10;93.90;;;;;;10477403;28;20045;-51
2023/10/24 06:47:33;;;;;;;3.85;3.08;;;19.30;92.60;;;;;;10466752;28;20097;-34
2023/10/24 06:52:36;;;;;;;2.33;1.40;;;19.40;92.10;;;;;;10470562;28;20048;-36
2023/10/24 06:57:38;;;;;;;3.95;1.75;;;19.30;92.90;;;;;;10470516;28;20397;-35
2023/10/24 07:02:41;;;;;;;4.50;2.25;;;19.00;93.50;;;;;;10470511;28;20044;-35
2023/10/24 07:07:43;;;;;;;5.75;4.15;;;19.40;91.80;;;;;;10469770;28;20036;-35
2023/10/24 07:12:45;;;;;;;9.13;6.57;;;18.50;93.90;;;;;;10473019;28;20138;-43
2023/10/24 07:17:48;;;;;;;6.25;3.85;;;18.90;92.80;;;;;;10470552;28;20045;-34
2023/10/24 07:22:50;;;;;;;9.57;6.53;;;19.00;93.10;;;;;;10475676;28;20595;-34
2023/10/24 07:27:52;;;;;;;8.07;4.53;;;18.20;94.70;;;;;;10472015;28;20053;-38
2023/10/24 07:32:55;;;;;;;13.53;8.73;;;18.10;96.70;;;;;;10472928;28;20086;-39
2023/10/24 07:37:57;;;;;;;5.93;3.53;;;16.60;99.00;;;;;;10474208;28;20048;-38
2023/10/24 07:42:59;;;;;;;12.10;8.33;;;17.30;99.90;;;;;;10474111;28;20048;-38
2023/10/24 07:48:03;;;;;;;2.77;2.20;;;16.30;99.90;;;;;;10467911;28;20072;-34
2023/10/24 07:53:05;;;;;;;14.52;6.32;;;17.30;99.90;;;;;;10463390;28;20393;-41
2023/10/24 07:58:08;;;;;;;17.97;8.87;;;16.40;99.90;;;;;;10476819;28;20094;-37
2023/10/24 08:03:12;;;;;;;12.32;9.43;;;15.80;99.90;;;;;;10476607;28;20057;-40
2023/10/24 08:08:14;;;;;;;4.53;3.65;;;15.60;99.90;;;;;;10474805;28;20086;-30
2023/10/24 08:13:16;;;;;;;9.53;5.83;;;16.50;99.90;;;;;;10477753;28;20098;-43
2023/10/24 08:18:19;;;;;;;6.47;4.68;;;15.60;99.90;;;;;;10478470;28;20044;-41
2023/10/24 08:23:21;;;;;;;9.80;7.28;;;15.90;99.90;;;;;;10475949;28;20110;-37
2023/10/24 08:28:23;;;;;;;3.90;2.50;;;17.10;99.60;;;;;;10477892;28;20435;-39
2023/10/24 08:33:28;;;;;;;9.33;6.20;;;17.80;98.40;;;;;;10477513;28;20058;-37
2023/10/24 08:38:29;;;;;;;7.57;4.63;;;16.80;99.90;;;;;;10474861;28;20465;-40
2023/10/24 08:43:32;;;;;;;8.80;5.77;;;15.70;99.90;;;;;;10476531;28;20430;-33
2023/10/24 08:48:35;;;;;;;6.80;5.28;;;16.00;99.90;;;;;;10478699;28;20036;-43
2023/10/24 08:53:37;;;;;;;3.17;2.17;;;16.20;99.90;;;;;;10468476;28;20044;-34
2023/10/24 08:58:39;;;;;;;3.00;1.77;;;16.30;99.90;;;;;;10474507;28;20117;-40
2023/10/24 09:03:43;;;;;;;;;;;17.10;99.90;;;;;;10477135;28;20244;-35
2023/10/24 09:08:45;;;;;;;7.28;4.05;;;16.20;99.90;;;;;;10470234;28;20007;-40
2023/10/24 09:13:46;;;;;;;11.37;6.77;;;16.30;99.90;;;;;;10473655;28;20044;-39
2023/10/24 09:18:50;;;;;;;10.80;5.33;;;15.00;99.90;;;;;;10472907;28;20131;-33
2023/10/24 09:23:52;;;;;;;2.70;1.70;;;15.50;99.90;;;;;;10474839;28;20068;-34
2023/10/24 09:28:57;;;;;;;8.73;6.20;;;16.90;99.90;;;;;;10479272;28;20044;-32
2023/10/24 09:34:00;;;;;;;11.48;8.05;;;16.00;99.90;;;;;;10470833;28;20060;-31
2023/10/24 09:39:03;;;;;;;9.02;7.20;;;15.20;99.90;;;;;;10472239;28;21326;-34
2023/10/24 09:44:05;;;;;;;7.20;4.57;;;15.30;99.90;;;;;;10475936;28;20045;-31
2023/10/24 09:49:08;;;;;;;12.55;7.55;;;15.20;99.90;;;;;;10471316;28;20037;-37
2023/10/24 09:54:11;;;;;;;9.02;6.55;;;15.10;99.90;;;;;;10472085;28;20084;-33
2023/10/24 09:59:13;;;;;;;4.88;3.42;;;15.10;99.90;;;;;;10473667;28;20132;-39
2023/10/24 10:04:17;;;;;;;6.97;2.87;;;16.10;99.90;;;;;;10470294;28;20133;-39
2023/10/24 10:09:21;;;;;;;9.13;5.32;;;15.60;99.90;;;;;;10470255;28;20438;-35
2023/10/24 10:14:34;;;;;;;10.05;6.00;;;16.40;99.90;;;;;;10472730;28;20052;-35
2023/10/24 10:19:52;;;;;;;12.38;6.25;;;16.20;99.90;;;;;;10477609;28;20094;-38
2023/10/24 10:25:34;;;;;;;6.32;3.63;;;15.50;99.90;;;;;;10467469;28;20055;-39
2023/10/24 10:30:42;;;;;;;6.07;3.60;;;16.20;99.90;;;;;;10428997;28;20130;-31
2023/10/24 10:35:50;;;;;;;9.85;4.55;;;15.90;99.90;;;;;;10467393;28;20064;-32
2023/10/24 10:40:52;;;;;;;4.30;2.88;;;15.10;99.90;;;;;;10472539;28;20131;-41
2023/10/24 10:46:16;;;;;;;4.82;3.72;;;14.80;99.90;;;;;;10472312;28;20041;-33
2023/10/24 10:51:22;;;;;;;5.00;3.67;;;15.10;99.90;;;;;;10464849;28;20055;-34
2023/10/24 10:56:30;;;;;;;7.80;3.17;;;14.80;99.90;;;;;;10471986;28;20401;-33
2023/10/24 11:01:39;;;;;;;5.15;2.85;;;15.20;99.90;;;;;;10468551;28;20040;-34
2023/10/24 11:06:51;;;;;;;3.78;2.30;;;15.10;99.90;;;;;;10469091;28;20505;-35
2023/10/24 11:12:27;;;;;;;4.68;1.48;;;15.80;99.90;;;;;;10470393;28;20049;-50
2023/10/24 11:17:29;;;;;;;2.63;2.33;;;16.20;99.90;;;;;;10463854;28;20048;-35
2023/10/24 11:22:32;;;;;;;3.27;2.00;;;15.70;99.90;;;;;;10456650;28;20446;-36
2023/10/24 11:27:35;;;;;;;3.28;1.67;;;16.00;99.90;;;;;;10466817;28;20502;-36
2023/10/24 11:32:37;;;;;;;;;;;16.50;99.90;;;;;;10467955;28;20075;-38
2023/10/24 11:37:40;;;;;;;2.08;1.30;;;17.20;99.90;;;;;;10466667;28;20427;-43
2023/10/24 11:42:41;;;;;;;2.55;1.23;;;15.10;99.90;;;;;;10481777;28;20127;-38
2023/10/24 11:47:43;;;;;;;3.47;1.17;;;15.70;99.90;;;;;;10477572;28;20045;-35
2023/10/24 11:52:46;;;;;;;2.63;0.70;;;16.10;99.90;;;;;;10477477;28;20052;-29
2023/10/24 11:57:49;;;;;;;2.00;1.00;;;16.30;99.90;;;;;;10476127;28;20086;-31
2023/10/24 12:02:51;;;;;;;1.42;0.80;;;15.60;99.90;;;;;;10479420;28;20044;-38
2023/10/24 12:07:56;;;;;;;4.27;1.40;;;15.20;99.90;;;;;;10467571;28;20370;-34
2023/10/24 12:12:59;;;;;;;1.95;0.93;;;15.50;99.90;;;;;;10472473;28;20397;-35
2023/10/24 12:18:05;;;;;;;2.40;0.82;;;14.30;99.90;;;;;;10478999;28;20583;-33
2023/10/24 12:23:08;;;;;;;2.95;0.70;;;14.60;99.90;;;;;;10474890;28;20130;-37
2023/10/24 12:28:10;;;;;;;3.63;1.02;;;15.80;99.90;;;;;;10468240;28;20039;-53
2023/10/24 12:33:12;;;;;;;4.38;0.98;;;15.50;99.90;;;;;;10476815;28;20127;-42
2023/10/24 12:38:17;;;;;;;2.38;0.68;;;16.20;99.90;;;;;;10483619;28;20447;-35
2023/10/24 12:43:18;;;;;;;2.05;0.80;;;17.50;99.90;;;;;;10475534;28;20060;-37
2023/10/24 12:48:20;;;;;;;1.52;0.70;;;17.50;99.90;;;;;;10476689;28;20044;-32
2023/10/24 12:53:24;;;;;;;2.13;0.87;;;17.40;99.90;;;;;;10471801;28;20109;-30
2023/10/24 12:58:26;;;;;;;2.25;0.52;;;17.10;99.90;;;;;;10469649;28;20045;-45
2023/10/24 13:03:28;;;;;;;2.33;0.93;;;18.30;97.10;;;;;;10477899;28;20481;-33
2023/10/24 13:08:31;;;;;;;2.55;0.90;;;18.70;94.40;;;;;;10473898;28;20032;-31
2023/10/24 13:13:33;;;;;;;2.97;1.05;;;17.40;99.30;;;;;;10473357;28;20067;-36
2023/10/24 13:18:34;;;;;;;0.67;0.43;;;16.60;99.90;;;;;;10473192;28;20141;-30
2023/10/24 13:23:37;;;;;;;1.40;0.80;;;18.00;98.20;;;;;;10482322;28;20135;-48
2023/10/24 13:28:39;;;;;;;3.90;1.23;;;17.90;97.80;;;;;;10472783;28;20481;-32
2023/10/24 13:33:43;;;;;;;1.80;0.70;;;17.50;98.80;;;;;;10473827;28;20123;-37
2023/10/24 13:38:46;;;;;;;1.77;0.80;;;17.50;99.80;;;;;;10476630;28;20107;-31
2023/10/24 13:43:47;;;;;;;2.50;1.42;;;17.50;99.60;;;;;;10472487;28;20044;-38
2023/10/24 13:48:49;;;;;;;3.57;1.87;;;16.00;99.90;;;;;;10472167;28;20052;-31
2023/10/24 13:53:52;;;;;;;3.90;1.00;;;16.40;99.90;;;;;;10469005;28;20087;-36
2023/10/24 13:58:54;;;;;;;0.95;0.68;;;17.40;99.90;;;;;;10466734;28;20102;-32
2023/10/24 14:03:56;;;;;;;0.87;0.73;;;18.40;97.70;;;;;;10469807;28;20059;-41
2023/10/24 14:09:01;;;;;;;6.10;1.13;;;18.50;97.30;;;;;;10470369;28;20479;-51
2023/10/24 14:14:03;;;;;;;5.05;1.92;;;18.20;98.60;;;;;;10465382;28;22342;-55
2023/10/24 14:19:05;;;;;;;2.63;1.13;;;16.50;99.90;;;;;;10458829;28;20124;-37
2023/10/24 14:24:11;;;;;;;4.10;1.20;;;15.70;99.90;;;;;;10452609;28;20661;-37
2023/10/24 14:29:12;;;;;;;5.78;0.88;;;15.00;99.90;;;;;;10467387;28;20071;-42
2023/10/24 14:34:14;;;;;;;6.60;1.23;;;15.10;99.90;;;;;;10441960;28;20064;-39
2023/10/24 14:39:18;;;;;;;3.40;0.67;;;14.90;99.90;;;;;;10425097;28;20039;-38
2023/10/24 14:44:20;;;;;;;10.13;1.38;;;15.00;99.90;;;;;;10450979;28;20040;-56
2023/10/24 14:49:22;;;;;;;3.92;0.85;;;15.60;99.90;;;;;;10433346;28;20048;-32
2023/10/24 14:54:25;;;;;;;4.33;0.90;;;15.80;99.90;;;;;;10462532;28;20056;-46
2023/10/24 14:59:27;;;;;;;7.07;1.00;;;17.20;99.90;;;;;;10456992;28;20127;-35
2023/10/24 15:04:28;;;;;;;3.13;0.70;;;17.00;99.90;;;;;;10469814;28;20040;-32
2023/10/24 15:09:32;;;;;;;2.50;0.70;;;17.80;99.90;;;;;;10464154;28;20131;-36
2023/10/24 15:14:33;;;;;;;3.35;0.73;;;17.80;99.90;;;;;;10464811;28;20549;-32
2023/10/24 15:19:35;;;;;;;1.07;0.50;;;16.60;99.90;;;;;;10460274;28;20519;-32
2023/10/24 15:24:38;;;;;;;4.63;1.10;;;15.70;99.90;;;;;;10462310;28;20110;-33
2023/10/24 15:29:40;;;;;;;3.83;0.80;;;16.10;99.90;;;;;;10465938;28;20119;-47
2023/10/24 15:34:42;;;;;;;7.07;0.70;;;16.30;99.90;;;;;;10470622;28;20056;-34
2023/10/24 15:39:46;;;;;;;4.10;0.80;;;15.40;99.90;;;;;;10468215;28;20523;-32
2023/10/24 15:44:49;;;;;;;7.97;1.02;;;16.00;99.90;;;;;;10462784;28;20049;-40
2023/10/24 15:49:51;;;;;;;2.17;0.65;;;15.60;99.90;;;;;;10468237;28;20075;-38
2023/10/24 15:54:54;;;;;;;0.52;0.50;;;15.40;99.90;;;;;;10468639;28;20139;-40
2023/10/24 15:59:56;;;;;;;3.88;0.77;;;15.20;99.90;;;;;;10462169;28;20048;-35
2023/10/24 16:04:58;;;;;;;6.40;0.93;;;15.30;99.90;;;;;;10468316;28;20124;-41
2023/10/24 16:10:01;;;;;;;4.13;0.85;;;15.40;99.90;;;;;;10470500;28;20546;-34
2023/10/24 16:15:03;;;;;;;8.82;1.00;;;16.60;99.90;;;;;;10466346;28;20094;-49
2023/10/24 16:20:06;;;;;;;2.22;0.90;;;16.00;99.90;;;;;;10470478;28;20119;-35
2023/10/24 16:25:10;;;;;;;8.00;1.02;;;15.50;99.90;;;;;;10476234;28;20062;-40
2023/10/24 16:30:13;;;;;;;3.75;0.80;;;14.70;99.90;;;;;;10470619;28;20234;-50
2023/10/24 16:35:16;;;;;;;5.60;1.15;;;14.70;99.90;;;;;;10470026;28;20055;-41
2023/10/24 16:40:19;;;;;;;3.10;0.65;;;14.40;99.90;;;;;;10472041;28;20136;-47
2023/10/24 16:45:21;;;;;;;1.50;0.70;;;14.20;99.90;;;;;;10469093;28;20091;-44
2023/10/24 16:50:23;;;;;;;5.47;1.10;;;15.90;99.90;;;;;;10465007;28;20161;-41
2023/10/24 16:55:26;;;;;;;4.23;1.30;;;17.20;99.90;;;;;;10469968;28;20056;-39
2023/10/24 17:00:28;;;;;;;3.35;0.90;;;15.40;99.90;;;;;;10465840;28;20072;-33
2023/10/24 17:05:30;;;;;;;4.05;1.63;;;16.30;99.90;;;;;;10470416;28;20145;-35
2023/10/24 17:10:33;;;;;;;4.37;1.07;;;15.30;99.90;;;;;;10467744;28;20131;-41
2023/10/24 17:15:35;;;;;;;5.30;1.00;;;15.40;99.90;;;;;;10463216;28;20424;-40
2023/10/24 17:20:37;;;;;;;2.90;1.40;;;15.70;99.90;;;;;;10467819;28;20504;-35
2023/10/24 17:25:41;;;;;;;10.33;1.20;;;14.50;99.90;;;;;;10468346;28;20772;-46
2023/10/24 17:30:43;;;;;;;6.63;1.45;;;13.80;99.90;;;;;;10470525;28;20044;-36
2023/10/24 17:35:44;;;;;;;5.07;1.00;;;13.60;99.90;;;;;;10461690;28;20849;-41
2023/10/24 17:40:50;;;;;;;2.10;1.10;;;13.70;99.90;;;;;;10465792;28;20139;-39
2023/10/24 17:45:53;;;;;;;5.65;1.00;;;13.80;99.90;;;;;;10467104;28;20051;-36
2023/10/24 17:50:55;;;;;;;8.93;1.00;;;13.80;99.90;;;;;;10466477;28;20523;-36
2023/10/24 17:56:01;;;;;;;4.53;1.25;;;13.60;99.90;;;;;;10463535;28;20076;-34
2023/10/24 18:01:11;;;;;;;10.70;2.25;;;13.90;99.90;;;;;;10467874;28;20040;-39
2023/10/24 18:06:13;;;;;;;5.50;1.27;;;14.60;99.90;;;;;;10460339;28;20141;-37
2023/10/24 18:11:16;;;;;;;6.87;1.27;;;15.20;99.90;;;;;;10475030;28;20063;-37
2023/10/24 18:16:18;;;;;;;7.57;1.65;;;14.40;99.90;;;;;;10467287;28;20062;-37
2023/10/24 18:21:20;;;;;;;4.85;1.00;;;14.50;99.90;;;;;;10463652;28;20159;-39
2023/10/24 18:26:23;;;;;;;4.05;1.15;;;15.20;99.90;;;;;;10471454;28;20342;-38
2023/10/24 18:31:25;;;;;;;7.88;1.95;;;15.10;99.90;;;;;;10466756;28;20045;-37
2023/10/24 18:36:28;;;;;;;7.13;1.47;;;15.90;99.90;;;;;;10465117;28;22190;-37
2023/10/24 18:41:31;;;;;;;4.95;1.20;;;15.10;99.90;;;;;;10467355;28;20037;-34
2023/10/24 18:46:33;;;;;;;3.47;1.23;;;14.60;99.90;;;;;;10469447;28;20094;-33
2023/10/24 18:51:34;;;;;;;4.80;1.33;;;15.10;99.90;;;;;;10469503;28;20128;-31
2023/10/24 18:56:38;;;;;;;5.78;1.33;;;14.90;99.90;;;;;;10471743;28;20076;-37
2023/10/24 19:01:40;;;;;;;6.18;1.75;;;15.30;99.90;;;;;;10467561;28;20063;-37
2023/10/24 19:06:43;;;;;;;9.77;1.03;;;15.40;99.90;;;;;;10465196;28;20473;-44
2023/10/24 19:11:47;;;;;;;5.75;0.90;;;15.80;99.90;;;;;;10469276;28;20497;-41
2023/10/24 19:16:49;;;;;;;8.15;1.17;;;15.50;99.90;;;;;;10462331;28;20057;-33
2023/10/24 19:21:51;;;;;;;4.68;0.90;;;15.00;99.90;;;;;;10464874;28;20052;-36
2023/10/24 19:26:55;;;;;;;5.93;1.48;;;15.60;99.90;;;;;;10472706;28;20127;-39
2023/10/24 19:31:57;;;;;;;10.63;1.67;;;15.40;99.90;;;;;;10465072;28;20036;-34
2023/10/24 19:37:03;;;;;;;5.05;1.27;;;14.60;99.90;;;;;;10465175;28;20052;-36
2023/10/24 19:42:07;;;;;;;4.70;1.02;;;15.30;99.90;;;;;;10466333;28;20036;-32
2023/10/24 19:47:15;;;;;;;8.02;0.80;;;15.50;99.90;;;;;;10462746;28;20048;-38
2023/10/24 19:52:21;;;;;;;3.22;0.77;;;15.90;99.90;;;;;;10467146;28;20041;-35
2023/10/24 19:57:26;;;;;;;7.88;1.27;;;16.50;99.90;;;;;;10477552;28;20131;-35
2023/10/24 20:02:29;;;;;;;1.70;0.70;;;17.10;98.10;;;;;;10474681;28;20037;-42
2023/10/24 20:07:33;;;;;;;2.25;0.68;;;16.50;99.90;;;;;;10472127;28;20045;-40
2023/10/24 20:12:38;;;;;;;2.33;0.75;;;15.80;94.50;;;;;;10476200;28;20090;-31
2023/10/24 20:17:42;;;;;;;1.23;0.40;;;15.10;97.10;;;;;;10470958;28;20099;-48
2023/10/24 20:22:44;;;;;;;1.85;0.60;;;14.70;95.40;;;;;;10474061;28;20048;-31
2023/10/24 20:27:48;;;;;;;4.60;0.90;;;15.00;99.90;;;;;;10470688;28;20447;-39
2023/10/24 20:32:50;;;;;;;1.10;0.50;;;15.80;99.90;;;;;;10475345;28;20513;-41
2023/10/24 20:37:51;;;;;;;8.48;1.88;;;14.80;99.90;;;;;;10475975;28;20461;-35
2023/10/24 20:42:54;;;;;;;2.42;0.70;;;14.10;99.90;;;;;;10473117;28;20051;-37
2023/10/24 20:47:56;;;;;;;4.22;0.73;;;15.80;99.90;;;;;;10464787;28;20041;-37
2023/10/24 20:52:58;;;;;;;4.87;1.07;;;16.00;99.90;;;;;;10471743;28;20177;-38
2023/10/24 20:58:02;;;;;;;2.50;0.53;;;16.40;99.60;;;;;;10472295;28;20982;-32
2023/10/24 21:03:04;;;;;;;2.20;0.43;;;16.20;99.90;;;;;;10471114;28;20378;-34
2023/10/24 21:08:06;;;;;;;1.50;0.68;;;15.80;99.90;;;;;;10472401;28;20126;-33
2023/10/24 21:13:09;;;;;;;4.17;0.67;;;16.20;96.30;;;;;;10476353;28;20044;-32
2023/10/24 21:18:11;;;;;;;5.80;0.88;;;16.10;99.90;;;;;;10468837;28;20056;-38
2023/10/24 21:23:13;;;;;;;4.13;1.77;;;15.90;99.90;;;;;;10476509;28;20158;-33
2023/10/24 21:28:18;;;;;;;2.53;1.10;;;15.40;99.90;;;;;;10479088;28;20048;-33
2023/10/24 21:33:20;;;;;;;4.50;0.60;;;16.00;99.90;;;;;;10478159;28;20449;-36
2023/10/24 21:38:22;;;;;;;1.33;0.80;;;15.60;99.90;;;;;;10475678;28;20358;-40
2023/10/24 21:43:25;;;;;;;3.10;0.60;;;16.10;99.80;;;;;;10473503;28;20566;-45
2023/10/24 21:48:27;;;;;;;1.35;0.50;;;15.10;99.90;;;;;;10461994;28;20461;-41
2023/10/24 21:53:29;;;;;;;3.93;0.93;;;15.40;99.90;;;;;;10472400;28;20225;-41
2023/10/24 21:58:33;;;;;;;4.67;1.00;;;15.60;99.90;;;;;;10469345;28;20049;-38
2023/10/24 22:03:34;;;;;;;2.95;0.80;;;16.10;99.90;;;;;;10471709;28;20433;-32
2023/10/24 22:08:36;;;;;;;2.33;1.10;;;16.20;99.90;;;;;;10467481;28;20139;-39
2023/10/24 22:13:39;;;;;;;2.33;1.10;;;17.40;97.90;;;;;;10472621;28;20130;-38
2023/10/24 22:18:41;;;;;;;2.10;1.10;;;18.20;94.20;;;;;;10470508;28;20496;-40
2023/10/24 22:23:43;;;;;;;1.87;0.73;;;18.20;93.50;;;;;;10471243;28;20400;-31
2023/10/24 22:28:46;;;;;;;2.67;1.03;;;17.80;95.20;;;;;;10466071;28;21125;-32
2023/10/24 22:33:48;;;;;;;3.30;1.27;;;17.90;94.50;;;;;;10473926;28;20158;-30
2023/10/24 22:38:50;;;;;;;1.85;0.73;;;17.70;94.50;;;;;;10469095;28;20084;-31
2023/10/24 22:43:53;;;;;;;2.17;0.90;;;17.90;94.80;;;;;;10469762;28;20456;-42
2023/10/24 22:48:55;;;;;;;3.28;1.58;;;18.80;91.10;;;;;;10467866;28;20032;-34
2023/10/24 22:53:56;;;;;;;2.83;0.90;;;19.00;89.90;;;;;;10463117;28;20136;-32
2023/10/24 22:59:00;;;;;;;2.30;1.20;;;18.60;91.10;;;;;;10466034;28;20049;-31
2023/10/24 23:04:02;;;;;;;2.40;0.73;;;18.50;91.00;;;;;;10474628;28;20045;-39
2023/10/24 23:09:04;;;;;;;0.98;0.75;;;19.10;88.80;;;;;;10472055;28;20151;-38
2023/10/24 23:14:07;;;;;;;1.90;0.90;;;19.30;87.10;;;;;;10468207;28;20135;-31
2023/10/24 23:19:09;;;;;;;2.10;0.90;;;19.00;88.10;;;;;;10470889;28;20525;-32
2023/10/24 23:24:10;;;;;;;1.83;1.00;;;18.40;90.50;;;;;;10469471;28;20174;-35
2023/10/24 23:29:14;;;;;;;1.90;0.88;;;18.40;91.00;;;;;;10472581;28;20036;-41
2023/10/24 23:34:15;;;;;;;2.05;0.90;;;18.90;88.50;;;;;;10471650;28;20072;-41
2023/10/24 23:39:17;;;;;;;3.47;1.52;;;19.20;86.10;;;;;;10475087;28;20068;-39
2023/10/24 23:44:21;;;;;;;3.40;1.08;;;19.10;85.00;;;;;;10474732;28;20167;-31
2023/10/24 23:49:23;;;;;;;1.65;0.98;;;19.10;85.90;;;;;;10481744;28;20045;-34
2023/10/24 23:54:25;;;;;;;4.13;1.30;;;18.80;87.70;;;;;;10480541;28;20049;-32
2023/10/24 23:59:28;;;;;;;2.80;1.00;;;18.40;89.10;;;;;;10479501;28;20273;-34
